createdAt,value
2022-11-18T00:05:20.925Z,0.60
2022-11-18T00:10:42.624Z,0.63
2022-11-18T00:16:07.147Z,0.40
2022-11-18T00:21:28.898Z,0.55
2022-11-18T00:26:51.218Z,0.50
2022-11-18T00:32:12.950Z,0.68
2022-11-18T00:37:34.736Z,0.65
2022-11-18T00:42:56.441Z,0.70
2022-11-18T00:48:21.609Z,0.80
2022-11-18T00:53:43.423Z,0.50
2022-11-18T00:59:05.275Z,0.60
2022-11-18T01:04:27.025Z,0.80
2022-11-18T01:09:48.725Z,0.60
2022-11-18T01:15:10.464Z,0.50
2022-11-18T01:20:33.046Z,0.60
2022-11-18T01:25:55.551Z,0.77
2022-11-18T01:31:19.184Z,0.68
2022-11-18T01:36:40.964Z,0.57
2022-11-18T01:42:02.710Z,0.57
2022-11-18T01:47:31.532Z,0.63
2022-11-18T01:52:58.465Z,0.70
2022-11-18T01:58:46.572Z,0.63
2022-11-18T02:04:09.822Z,0.60
2022-11-18T02:09:31.960Z,0.70
2022-11-18T02:14:53.953Z,0.50
2022-11-18T02:20:21.296Z,0.40
2022-11-18T02:26:02.615Z,0.73
2022-11-18T02:31:31.268Z,0.40
2022-11-18T02:37:03.891Z,0.40
2022-11-18T02:42:30.413Z,0.47
2022-11-18T02:47:54.638Z,0.63
2022-11-18T02:53:20.138Z,0.50
2022-11-18T02:58:41.834Z,0.75
2022-11-18T03:04:03.659Z,0.70
2022-11-18T03:09:31.197Z,0.60
2022-11-18T03:15:19.425Z,0.70
2022-11-18T03:20:54.140Z,0.60
2022-11-18T03:26:25.686Z,0.90
2022-11-18T03:32:01.912Z,0.60
2022-11-18T03:37:26.748Z,0.57
2022-11-18T03:42:52.709Z,0.88
2022-11-18T03:48:17.479Z,0.57
2022-11-18T03:53:50.897Z,0.60
2022-11-18T03:59:27.280Z,0.40
2022-11-18T04:04:51.893Z,0.90
2022-11-18T04:10:18.020Z,0.60
2022-11-18T04:15:42.504Z,0.60
2022-11-18T04:21:04.383Z,0.40
2022-11-18T04:26:26.059Z,0.40
2022-11-18T04:31:47.747Z,0.50
2022-11-18T04:37:09.415Z,0.47
2022-11-18T04:42:31.234Z,0.50
2022-11-18T04:47:52.933Z,0.60
2022-11-18T04:53:14.604Z,0.55
2022-11-18T04:58:36.275Z,0.30
2022-11-18T05:04:00.595Z,0.40
2022-11-18T05:09:26.093Z,0.47
2022-11-18T05:14:52.073Z,0.50
2022-11-18T05:20:14.316Z,0.60
2022-11-18T05:25:36.048Z,0.40
2022-11-18T05:30:57.773Z,0.50
2022-11-18T05:36:21.185Z,0.50
2022-11-18T05:42:01.356Z,0.50
2022-11-18T05:47:24.892Z,0.60
2022-11-18T05:52:46.558Z,0.60
2022-11-18T05:58:08.224Z,0.52
2022-11-18T06:03:34.573Z,0.60
2022-11-18T06:09:02.374Z,0.60
2022-11-18T06:14:33.609Z,0.40
2022-11-18T06:19:56.687Z,0.70
2022-11-18T06:25:18.778Z,0.50
2022-11-18T06:30:40.581Z,0.70
2022-11-18T06:36:02.571Z,0.60
2022-11-18T06:41:24.294Z,0.70
2022-11-18T06:46:58.235Z,0.63
2022-11-18T06:52:22.656Z,0.80
2022-11-18T06:57:45.078Z,0.80
2022-11-18T07:03:06.740Z,0.80
2022-11-18T07:08:28.552Z,0.50
2022-11-18T07:13:50.678Z,0.60
2022-11-18T07:19:13.772Z,1.17
2022-11-18T07:24:35.524Z,1.05
2022-11-18T07:29:57.208Z,1.00
2022-11-18T07:35:18.878Z,1.00
2022-11-18T07:40:40.594Z,1.10
2022-11-18T07:46:22.282Z,0.88
2022-11-18T07:51:43.964Z,0.60
2022-11-18T07:57:05.692Z,1.02
2022-11-18T08:02:27.393Z,0.77
2022-11-18T08:07:49.210Z,0.63
2022-11-18T08:13:10.885Z,0.70
2022-11-18T08:18:32.706Z,0.73
2022-11-18T08:23:56.557Z,0.60
2022-11-18T08:29:24.570Z,0.80
2022-11-18T08:34:46.856Z,0.60
2022-11-18T08:40:09.522Z,0.50
2022-11-18T08:45:31.231Z,0.60
2022-11-18T08:50:53.571Z,0.70
2022-11-18T08:56:18.563Z,1.00
2022-11-18T09:01:42.530Z,0.80
2022-11-18T09:07:04.336Z,1.40
2022-11-18T09:12:26.102Z,1.40
2022-11-18T09:17:47.753Z,1.10
2022-11-18T09:23:09.534Z,0.85
2022-11-18T09:28:31.545Z,0.68
2022-11-18T09:33:53.364Z,0.60
2022-11-18T09:39:15.283Z,0.50
2022-11-18T09:44:49.555Z,0.80
2022-11-18T09:50:47.367Z,0.80
2022-11-18T09:55:57.265Z,0.82
2022-11-18T10:01:21.499Z,0.70
2022-11-18T10:06:45.001Z,0.63
2022-11-18T10:12:16.003Z,0.70
2022-11-18T10:18:08.899Z,0.77
2022-11-18T10:23:50.585Z,0.70
2022-11-18T10:29:12.359Z,0.93
2022-11-18T10:34:45.632Z,0.90
2022-11-18T10:40:24.422Z,1.20
2022-11-18T10:45:46.121Z,1.60
2022-11-18T10:51:23.047Z,1.30
2022-11-18T10:56:58.080Z,1.30
2022-11-18T11:02:32.602Z,1.10
2022-11-18T11:08:34.306Z,1.50
2022-11-18T11:13:46.089Z,1.40
2022-11-18T11:19:12.093Z,1.20
2022-11-18T11:24:33.818Z,1.40
2022-11-18T11:30:15.842Z,1.67
2022-11-18T11:35:52.436Z,1.65
2022-11-18T11:41:23.924Z,1.13
2022-11-18T11:47:08.274Z,1.00
2022-11-18T11:52:48.606Z,1.08
2022-11-18T11:58:17.129Z,0.90
2022-11-18T12:03:51.987Z,1.00
2022-11-18T12:09:43.437Z,1.08
2022-11-18T12:15:19.967Z,0.90
2022-11-18T12:20:48.178Z,1.00
2022-11-18T12:26:10.736Z,0.90
2022-11-18T12:31:34.135Z,1.20
2022-11-18T12:36:56.151Z,1.83
2022-11-18T12:42:58.142Z,0.93
2022-11-18T12:48:41.622Z,1.10
2022-11-18T12:54:20.652Z,1.15
2022-11-18T12:59:42.445Z,1.77
2022-11-18T13:05:04.416Z,1.30
2022-11-18T13:10:30.583Z,1.38
2022-11-18T13:16:12.574Z,1.50
2022-11-18T13:21:53.269Z,1.13
2022-11-18T13:27:45.123Z,1.23
2022-11-18T13:33:11.087Z,1.70
2022-11-18T13:38:32.862Z,1.50
2022-11-18T13:43:54.592Z,1.33
2022-11-18T13:49:21.206Z,1.00
2022-11-18T13:54:43.223Z,0.90
2022-11-18T14:00:19.590Z,1.38
2022-11-18T14:05:41.650Z,1.20
2022-11-18T14:11:05.000Z,1.25
2022-11-18T14:16:35.919Z,1.65
2022-11-18T14:22:13.631Z,1.40
2022-11-18T14:27:39.466Z,1.17
2022-11-18T14:33:20.663Z,1.02
2022-11-18T14:44:30.517Z,1.70
2022-11-18T14:49:52.278Z,1.20
2022-11-18T14:55:14.035Z,1.30
2022-11-18T15:00:35.752Z,1.23
2022-11-18T15:05:57.462Z,1.60
2022-11-18T15:11:19.605Z,1.55
2022-11-18T15:16:41.328Z,1.63
2022-11-18T15:22:03.047Z,1.80
2022-11-18T15:27:24.876Z,1.70
2022-11-18T15:32:46.570Z,1.70
2022-11-18T15:38:11.063Z,2.10
2022-11-18T15:43:32.768Z,1.70
2022-11-18T15:48:55.597Z,2.00
2022-11-18T15:54:17.706Z,2.00
2022-11-18T15:59:39.634Z,1.90
2022-11-18T16:05:01.374Z,2.88
2022-11-18T16:10:41.464Z,2.53
2022-11-18T16:16:03.225Z,2.53
2022-11-18T16:21:25.478Z,2.00
2022-11-18T16:26:47.770Z,1.75
2022-11-18T16:32:13.353Z,1.93
2022-11-18T16:37:35.007Z,2.20
2022-11-18T16:42:56.715Z,2.00
2022-11-18T16:48:19.658Z,2.15
2022-11-18T16:53:41.363Z,1.70
2022-11-18T16:59:04.686Z,2.10
2022-11-18T17:04:28.618Z,2.30
2022-11-18T17:09:50.363Z,2.40
2022-11-18T17:15:12.442Z,2.27
2022-11-18T17:20:37.295Z,2.55
2022-11-18T17:26:00.011Z,2.60
2022-11-18T17:31:23.642Z,2.95
2022-11-18T17:36:45.666Z,2.95
2022-11-18T17:42:18.021Z,2.83
2022-11-18T17:47:39.704Z,2.58
2022-11-18T17:53:01.421Z,3.40
2022-11-18T17:58:23.118Z,3.30
2022-11-18T18:03:44.890Z,2.88
2022-11-18T18:09:06.658Z,2.30
2022-11-18T18:14:28.415Z,3.08
2022-11-18T18:19:50.153Z,4.43
2022-11-18T18:25:12.107Z,4.50
2022-11-18T18:30:33.886Z,4.07
2022-11-18T18:36:00.146Z,3.53
2022-11-18T18:41:22.974Z,3.63
2022-11-18T18:46:44.649Z,3.38
2022-11-18T18:52:06.331Z,3.33
2022-11-18T18:57:29.625Z,3.40
2022-11-18T19:02:51.336Z,4.60
2022-11-18T19:08:12.995Z,4.25
2022-11-18T19:13:34.813Z,3.88
2022-11-18T19:18:57.796Z,3.78
2022-11-18T19:24:47.695Z,3.25
2022-11-18T19:30:01.391Z,3.20
2022-11-18T19:35:23.075Z,2.37
2022-11-18T19:40:44.841Z,2.40
2022-11-18T19:46:07.192Z,2.50
2022-11-18T19:51:30.746Z,2.67
2022-11-18T19:56:52.524Z,3.28
2022-11-18T20:02:14.369Z,3.60
2022-11-18T20:07:36.149Z,2.70
2022-11-18T20:12:57.981Z,2.47
2022-11-18T20:18:22.116Z,2.40
2022-11-18T20:23:43.897Z,2.25
2022-11-18T20:29:07.482Z,2.45
2022-11-18T20:34:29.146Z,2.65
2022-11-18T20:39:50.843Z,3.65
2022-11-18T20:45:12.584Z,3.50
2022-11-18T20:50:38.629Z,3.15
2022-11-18T20:56:00.359Z,9.35
2022-11-18T21:01:25.383Z,4.82
2022-11-18T21:06:47.774Z,6.00
2022-11-18T21:12:09.484Z,3.00
2022-11-18T21:17:31.324Z,3.00
2022-11-18T21:22:53.084Z,2.30
2022-11-18T21:28:14.836Z,2.25
2022-11-18T21:33:36.647Z,2.70
2022-11-18T21:38:59.195Z,2.28
2022-11-18T21:44:21.070Z,2.63
2022-11-18T21:49:42.791Z,3.22
2022-11-18T21:55:05.080Z,3.00
2022-11-18T22:00:27.156Z,2.47
2022-11-18T22:05:49.052Z,2.28
2022-11-18T22:11:13.004Z,2.78
2022-11-18T22:16:34.765Z,2.45
2022-11-18T22:21:56.536Z,2.50
2022-11-18T22:27:18.231Z,2.30
2022-11-18T22:32:40.028Z,2.47
2022-11-18T22:38:01.735Z,2.75
2022-11-18T22:43:23.496Z,2.63
2022-11-18T22:48:45.224Z,3.10
2022-11-18T22:59:49.529Z,2.17
2022-11-18T23:05:11.258Z,2.00
2022-11-18T23:10:34.001Z,2.10
2022-11-18T23:15:59.317Z,2.40
2022-11-18T23:21:21.139Z,2.92
2022-11-18T23:26:43.343Z,2.20
2022-11-18T23:32:05.340Z,2.63
2022-11-18T23:37:27.067Z,1.90
2022-11-18T23:42:48.762Z,1.40
2022-11-18T23:48:10.461Z,1.77
2022-11-18T23:53:36.184Z,1.60
2022-11-18T23:58:57.970Z,2.10
